createdAt,value
2019-06-20T00:01:31.308Z,17.00
2019-06-20T00:03:59.915Z,16.90
2019-06-20T00:06:28.616Z,16.90
2019-06-20T00:08:57.284Z,16.90
2019-06-20T00:11:25.934Z,16.90
2019-06-20T00:13:54.579Z,16.80
2019-06-20T00:16:23.152Z,16.80
2019-06-20T00:18:51.727Z,16.80
2019-06-20T00:21:20.633Z,16.70
2019-06-20T00:23:49.281Z,16.70
2019-06-20T00:26:17.928Z,16.70
2019-06-20T00:28:46.520Z,16.70
2019-06-20T00:31:15.515Z,16.70
2019-06-20T00:33:44.105Z,16.70
2019-06-20T00:36:12.659Z,16.60
2019-06-20T00:38:41.248Z,16.60
2019-06-20T00:41:10.144Z,16.50
2019-06-20T00:43:39.196Z,16.50
2019-06-20T00:46:07.905Z,16.50
2019-06-20T00:48:36.531Z,16.40
2019-06-20T00:51:05.193Z,16.40
2019-06-20T00:53:33.739Z,16.40
2019-06-20T00:56:02.807Z,16.40
2019-06-20T00:58:31.393Z,16.30
2019-06-20T01:00:59.983Z,16.30
2019-06-20T01:03:28.555Z,16.20
2019-06-20T01:05:57.141Z,16.20
2019-06-20T01:08:25.711Z,16.20
2019-06-20T01:10:54.359Z,16.20
2019-06-20T01:13:33.230Z,16.20
2019-06-20T01:15:53.473Z,16.20
2019-06-20T01:18:22.055Z,16.20
2019-06-20T01:20:50.725Z,16.10
2019-06-20T01:23:19.740Z,16.10
2019-06-20T01:25:48.666Z,16.10
2019-06-20T01:28:17.339Z,16.00
2019-06-20T01:30:45.982Z,16.00
2019-06-20T01:33:14.553Z,16.00
2019-06-20T01:35:43.196Z,16.00
2019-06-20T01:38:11.758Z,16.00
2019-06-20T01:40:40.426Z,15.90
2019-06-20T01:43:09.070Z,15.90
2019-06-20T01:45:37.816Z,15.90
2019-06-20T01:48:06.538Z,15.90
2019-06-20T01:50:35.181Z,15.90
2019-06-20T01:53:03.841Z,15.90
2019-06-20T01:55:32.704Z,15.90
2019-06-20T01:58:01.467Z,15.90
2019-06-20T02:00:35.882Z,15.90
2019-06-20T02:03:04.609Z,15.90
2019-06-20T02:05:33.379Z,15.80
2019-06-20T02:08:02.033Z,15.90
2019-06-20T02:10:30.689Z,15.90
2019-06-20T02:12:59.289Z,15.90
2019-06-20T02:15:28.033Z,15.90
2019-06-20T02:17:56.674Z,15.90
2019-06-20T02:20:30.521Z,15.80
2019-06-20T02:22:59.167Z,15.90
2019-06-20T02:25:28.029Z,15.80
2019-06-20T02:27:56.679Z,15.80
2019-06-20T02:30:25.746Z,15.80
2019-06-20T02:32:54.457Z,15.80
2019-06-20T02:35:23.122Z,15.70
2019-06-20T02:37:51.760Z,15.70
2019-06-20T02:40:20.604Z,15.60
2019-06-20T02:42:49.310Z,15.60
2019-06-20T02:45:18.416Z,15.60
2019-06-20T02:47:47.008Z,15.50
2019-06-20T02:50:16.697Z,15.50
2019-06-20T02:52:45.697Z,15.40
2019-06-20T02:55:14.866Z,15.40
2019-06-20T02:57:43.546Z,15.40
2019-06-20T03:00:12.844Z,15.40
2019-06-20T03:02:41.533Z,15.30
2019-06-20T03:05:10.832Z,15.30
2019-06-20T03:07:39.394Z,15.30
2019-06-20T03:10:08.709Z,15.20
2019-06-20T03:12:37.266Z,15.20
2019-06-20T03:15:06.449Z,15.20
2019-06-20T03:17:34.961Z,15.20
2019-06-20T03:20:05.551Z,15.20
2019-06-20T03:22:34.693Z,15.20
2019-06-20T03:25:03.489Z,15.20
2019-06-20T03:27:32.466Z,15.30
2019-06-20T03:30:01.088Z,15.30
2019-06-20T03:32:29.754Z,15.40
2019-06-20T03:34:58.419Z,15.30
2019-06-20T03:37:27.073Z,15.40
2019-06-20T03:39:55.639Z,15.40
2019-06-20T03:42:24.317Z,15.40
2019-06-20T03:45:01.692Z,15.50
2019-06-20T03:47:23.169Z,15.50
2019-06-20T03:49:52.110Z,15.50
2019-06-20T03:52:20.677Z,15.50
2019-06-20T03:54:49.264Z,15.50
2019-06-20T03:57:17.863Z,15.60
2019-06-20T03:59:46.903Z,15.50
2019-06-20T04:02:15.470Z,15.50
2019-06-20T04:04:44.461Z,15.50
2019-06-20T04:07:13.032Z,15.50
2019-06-20T04:09:41.680Z,15.40
2019-06-20T04:12:10.346Z,15.40
2019-06-20T04:14:39.031Z,15.40
2019-06-20T04:17:07.616Z,15.40
2019-06-20T04:19:36.185Z,15.40
2019-06-20T04:22:04.968Z,15.40
2019-06-20T04:24:33.773Z,15.50
2019-06-20T04:27:02.355Z,15.40
2019-06-20T04:29:30.952Z,15.50
2019-06-20T04:31:59.601Z,15.60
2019-06-20T04:34:28.259Z,15.70
2019-06-20T04:36:56.843Z,15.70
2019-06-20T04:39:25.708Z,15.80
2019-06-20T04:41:59.206Z,15.90
2019-06-20T04:44:27.769Z,15.90
2019-06-20T04:47:00.458Z,15.90
2019-06-20T04:49:29.018Z,15.80
2019-06-20T04:51:57.619Z,15.80
2019-06-20T04:54:26.182Z,15.80
2019-06-20T04:56:55.501Z,15.90
2019-06-20T04:59:24.008Z,15.80
2019-06-20T05:01:52.591Z,15.90
2019-06-20T05:04:21.517Z,16.00
2019-06-20T05:06:53.162Z,16.00
2019-06-20T05:09:21.739Z,16.00
2019-06-20T05:11:50.311Z,16.10
2019-06-20T05:14:19.132Z,16.20
2019-06-20T05:16:47.731Z,16.20
2019-06-20T05:19:16.542Z,16.30
2019-06-20T05:21:45.373Z,16.30
2019-06-20T05:24:13.951Z,16.40
2019-06-20T05:26:42.543Z,16.50
2019-06-20T05:29:11.210Z,16.50
2019-06-20T05:31:39.775Z,16.70
2019-06-20T05:34:08.343Z,16.50
2019-06-20T05:36:36.972Z,16.50
2019-06-20T05:39:07.134Z,16.50
2019-06-20T05:41:36.029Z,16.40
2019-06-20T05:44:04.760Z,16.40
2019-06-20T05:46:33.355Z,16.40
2019-06-20T05:49:02.323Z,16.40
2019-06-20T05:51:30.893Z,16.50
2019-06-20T05:53:59.556Z,16.50
2019-06-20T05:56:28.214Z,16.50
2019-06-20T05:58:56.854Z,16.50
2019-06-20T06:01:26.403Z,16.60
2019-06-20T06:03:55.030Z,16.70
2019-06-20T06:06:23.595Z,16.70
2019-06-20T06:08:52.187Z,16.80
2019-06-20T06:11:20.827Z,16.90
2019-06-20T06:13:49.430Z,17.00
2019-06-20T06:16:26.095Z,17.10
2019-06-20T06:18:48.273Z,17.10
2019-06-20T06:21:16.936Z,17.00
2019-06-20T06:23:45.500Z,16.90
2019-06-20T06:26:14.081Z,16.90
2019-06-20T06:28:42.661Z,16.90
2019-06-20T06:31:11.341Z,17.00
2019-06-20T06:33:39.948Z,17.10
2019-06-20T06:36:08.512Z,17.00
2019-06-20T06:38:37.080Z,17.00
2019-06-20T06:41:05.726Z,17.00
2019-06-20T06:43:34.476Z,16.90
2019-06-20T06:46:03.115Z,17.00
2019-06-20T06:48:31.694Z,17.00
2019-06-20T06:51:00.363Z,17.00
2019-06-20T06:53:29.325Z,16.90
2019-06-20T06:55:57.968Z,16.90
2019-06-20T06:58:26.563Z,16.90
2019-06-20T07:00:55.221Z,16.90
2019-06-20T07:03:23.920Z,17.00
2019-06-20T07:05:52.654Z,17.20
2019-06-20T07:08:21.666Z,17.60
2019-06-20T07:10:50.311Z,18.00
2019-06-20T07:13:18.885Z,18.30
2019-06-20T07:15:47.544Z,18.40
2019-06-20T07:18:16.124Z,18.50
2019-06-20T07:20:44.817Z,18.60
2019-06-20T07:23:13.359Z,18.70
2019-06-20T07:25:41.953Z,18.70
2019-06-20T07:28:10.888Z,18.90
2019-06-20T07:30:39.567Z,19.10
2019-06-20T07:33:08.241Z,19.20
2019-06-20T07:35:36.911Z,19.20
2019-06-20T07:38:05.567Z,19.20
2019-06-20T07:40:34.294Z,19.30
2019-06-20T07:43:02.876Z,19.30
2019-06-20T07:45:31.597Z,19.30
2019-06-20T07:48:00.215Z,19.20
2019-06-20T07:50:28.847Z,19.30
2019-06-20T07:53:02.640Z,19.40
2019-06-20T07:55:27.822Z,19.40
2019-06-20T07:57:56.485Z,19.30
2019-06-20T08:00:25.592Z,19.20
2019-06-20T08:02:54.277Z,19.10
2019-06-20T08:05:23.172Z,19.20
2019-06-20T08:07:51.803Z,19.50
2019-06-20T08:10:21.256Z,19.70
2019-06-20T08:12:49.805Z,20.00
2019-06-20T08:15:19.067Z,20.30
2019-06-20T08:17:47.633Z,20.40
2019-06-20T08:20:17.263Z,20.50
2019-06-20T08:22:46.148Z,20.50
2019-06-20T08:25:16.501Z,20.60
2019-06-20T08:27:53.383Z,20.40
2019-06-20T08:30:33.541Z,20.40
2019-06-20T08:33:07.614Z,20.70
2019-06-20T08:35:33.704Z,20.90
2019-06-20T08:38:03.757Z,20.70
2019-06-20T08:40:36.271Z,20.80
2019-06-20T08:43:06.309Z,20.40
2019-06-20T08:45:37.532Z,20.30
2019-06-20T08:48:07.450Z,20.30
2019-06-20T08:50:36.654Z,20.30
2019-06-20T08:53:06.100Z,20.40
2019-06-20T08:55:35.311Z,20.60
2019-06-20T08:58:05.564Z,20.90
2019-06-20T09:00:36.270Z,21.10
2019-06-20T09:03:06.160Z,20.90
2019-06-20T09:05:35.578Z,20.80
2019-06-20T09:08:05.875Z,20.80
2019-06-20T09:10:39.829Z,21.10
2019-06-20T09:13:09.860Z,21.20
2019-06-20T09:15:38.777Z,21.40
2019-06-20T09:18:07.619Z,21.70
2019-06-20T09:20:36.819Z,22.00
2019-06-20T09:23:06.195Z,22.40
2019-06-20T09:25:36.180Z,22.40
2019-06-20T09:28:06.070Z,22.50
2019-06-20T09:30:35.812Z,22.30
2019-06-20T09:33:04.627Z,22.00
2019-06-20T09:35:33.295Z,22.00
2019-06-20T09:38:03.320Z,22.10
2019-06-20T09:40:32.280Z,22.30
2019-06-20T09:43:00.853Z,22.50
2019-06-20T09:45:29.431Z,22.80
2019-06-20T09:47:58.354Z,23.00
2019-06-20T09:50:27.315Z,23.00
2019-06-20T09:52:56.608Z,23.00
2019-06-20T09:55:26.128Z,23.00
2019-06-20T09:57:55.939Z,23.10
2019-06-20T10:00:26.806Z,23.10
2019-06-20T10:02:56.361Z,23.20
2019-06-20T10:05:26.058Z,23.10
2019-06-20T10:07:54.706Z,23.00
2019-06-20T10:10:31.937Z,23.40
2019-06-20T10:13:00.729Z,23.60
2019-06-20T10:15:31.551Z,23.60
2019-06-20T10:18:00.341Z,23.60
2019-06-20T10:20:29.404Z,23.80
2019-06-20T10:22:58.104Z,23.80
2019-06-20T10:25:26.826Z,23.70
2019-06-20T10:27:55.383Z,23.80
2019-06-20T10:30:25.508Z,24.10
2019-06-20T10:32:54.084Z,24.20
2019-06-20T10:35:23.326Z,24.10
2019-06-20T10:37:52.938Z,24.00
2019-06-20T10:40:22.688Z,24.00
2019-06-20T10:42:52.977Z,24.30
2019-06-20T10:45:25.255Z,24.00
2019-06-20T10:47:54.583Z,24.10
2019-06-20T10:50:25.090Z,24.20
2019-06-20T10:52:54.476Z,24.30
2019-06-20T10:55:23.224Z,24.20
2019-06-20T10:57:52.297Z,24.20
2019-06-20T11:00:30.871Z,24.20
2019-06-20T11:02:52.587Z,24.20
2019-06-20T11:05:21.526Z,24.30
2019-06-20T11:07:50.654Z,24.40
2019-06-20T11:10:20.059Z,24.30
2019-06-20T11:12:54.930Z,24.10
2019-06-20T11:15:20.123Z,24.00
2019-06-20T11:17:49.180Z,23.60
2019-06-20T11:20:18.170Z,23.60
2019-06-20T11:22:47.852Z,23.80
2019-06-20T11:25:19.313Z,23.70
2019-06-20T11:27:47.634Z,23.90
2019-06-20T11:30:28.236Z,23.90
2019-06-20T11:32:56.798Z,23.70
2019-06-20T11:35:25.399Z,23.60
2019-06-20T11:37:54.056Z,23.40
2019-06-20T11:40:22.918Z,23.30
2019-06-20T11:42:51.541Z,23.30
2019-06-20T11:45:20.762Z,23.00
2019-06-20T11:47:49.628Z,22.60
2019-06-20T11:50:19.106Z,22.50
2019-06-20T11:52:47.694Z,22.50
2019-06-20T11:55:17.816Z,22.50
2019-06-20T11:57:46.458Z,22.70
2019-06-20T12:00:16.084Z,22.70
2019-06-20T12:02:46.027Z,22.80
2019-06-20T12:05:15.624Z,23.00
2019-06-20T12:07:45.625Z,23.10
2019-06-20T12:10:16.727Z,23.50
2019-06-20T12:12:46.782Z,23.60
2019-06-20T12:15:16.248Z,23.70
2019-06-20T12:17:45.330Z,23.90
2019-06-20T12:20:15.965Z,24.00
2019-06-20T12:22:45.062Z,24.00
2019-06-20T12:25:14.431Z,24.10
2019-06-20T12:27:43.319Z,24.30
2019-06-20T12:30:16.092Z,24.60
2019-06-20T12:32:44.874Z,24.50
2019-06-20T12:35:13.769Z,24.50
2019-06-20T12:37:42.767Z,24.60
2019-06-20T12:40:13.807Z,24.90
2019-06-20T12:42:43.194Z,24.60
2019-06-20T12:45:14.910Z,24.60
2019-06-20T12:47:43.865Z,24.60
2019-06-20T12:50:14.055Z,24.80
2019-06-20T12:52:42.804Z,24.60
2019-06-20T12:55:12.338Z,24.70
2019-06-20T12:57:42.256Z,25.00
2019-06-20T13:00:12.587Z,25.00
2019-06-20T13:02:42.042Z,25.10
2019-06-20T13:05:12.358Z,25.20
2019-06-20T13:07:42.289Z,24.90
2019-06-20T13:10:11.676Z,24.50
2019-06-20T13:12:41.404Z,24.70
2019-06-20T13:15:12.666Z,25.20
2019-06-20T13:17:42.872Z,25.60
2019-06-20T13:20:11.774Z,25.80
2019-06-20T13:22:41.334Z,26.10
2019-06-20T13:25:11.728Z,26.20
2019-06-20T13:27:41.051Z,26.20
2019-06-20T13:30:10.510Z,26.30
2019-06-20T13:32:40.182Z,26.50
2019-06-20T13:35:09.833Z,26.20
2019-06-20T13:37:39.875Z,26.00
2019-06-20T13:40:12.479Z,26.00
2019-06-20T13:42:42.650Z,26.10
2019-06-20T13:45:23.268Z,26.30
2019-06-20T13:47:52.500Z,26.50
2019-06-20T13:50:22.824Z,27.30
2019-06-20T13:52:51.889Z,27.80
2019-06-20T13:55:20.617Z,28.00
2019-06-20T13:57:49.543Z,28.40
2019-06-20T14:00:21.078Z,29.00
2019-06-20T14:02:51.458Z,29.90
2019-06-20T14:05:20.184Z,31.00
2019-06-20T14:07:52.901Z,32.20
2019-06-20T14:10:19.222Z,33.40
2019-06-20T14:12:48.746Z,34.50
2019-06-20T14:15:18.246Z,36.00
2019-06-20T14:17:47.470Z,37.00
2019-06-20T14:20:16.690Z,36.90
2019-06-20T14:22:45.317Z,37.90
2019-06-20T14:25:14.454Z,38.00
2019-06-20T14:27:43.925Z,37.60
2019-06-20T14:30:13.813Z,36.60
2019-06-20T14:32:43.266Z,35.20
2019-06-20T14:35:12.519Z,34.80
2019-06-20T14:37:43.401Z,34.10
2019-06-20T14:40:12.770Z,33.90
2019-06-20T14:42:41.472Z,35.10
2019-06-20T14:45:10.576Z,35.20
2019-06-20T14:47:39.341Z,34.60
2019-06-20T14:50:09.813Z,34.90
2019-06-20T14:52:38.567Z,36.00
2019-06-20T14:55:07.772Z,37.40
2019-06-20T14:57:36.535Z,38.50
2019-06-20T15:00:07.836Z,39.50
2019-06-20T15:02:38.917Z,40.20
2019-06-20T15:05:18.140Z,39.60
2019-06-20T15:07:48.906Z,37.70
2019-06-20T15:10:17.533Z,38.80
2019-06-20T15:12:47.873Z,40.10
2019-06-20T15:15:16.953Z,41.10
2019-06-20T15:17:47.418Z,41.80
2019-06-20T15:20:17.603Z,42.40
2019-06-20T15:22:47.382Z,42.60
2019-06-20T15:25:17.100Z,41.60
2019-06-20T15:27:47.535Z,40.30
2019-06-20T15:30:16.653Z,41.00
2019-06-20T15:33:01.067Z,41.90
2019-06-20T15:35:15.535Z,42.30
2019-06-20T15:37:44.200Z,41.90
2019-06-20T15:40:13.140Z,41.80
2019-06-20T15:42:42.098Z,40.00
2019-06-20T15:45:11.727Z,39.40
2019-06-20T15:47:40.794Z,39.50
2019-06-20T15:50:10.050Z,40.00
2019-06-20T15:52:38.782Z,39.40
2019-06-20T15:55:08.097Z,37.80
2019-06-20T15:57:36.684Z,36.40
2019-06-20T16:00:10.719Z,34.60
2019-06-20T16:02:39.448Z,33.90
2019-06-20T16:05:08.807Z,34.80
2019-06-20T16:07:37.541Z,35.40
2019-06-20T16:10:07.940Z,36.00
2019-06-20T16:12:36.601Z,36.70
2019-06-20T16:15:07.024Z,37.30
2019-06-20T16:17:36.859Z,37.20
2019-06-20T16:20:08.720Z,37.50
2019-06-20T16:22:37.714Z,38.10
2019-06-20T16:25:06.748Z,39.40
2019-06-20T16:27:35.979Z,40.00
2019-06-20T16:30:06.999Z,40.10
2019-06-20T16:32:35.580Z,40.50
2019-06-20T16:35:08.655Z,41.40
2019-06-20T16:37:37.518Z,42.10
2019-06-20T16:40:08.396Z,41.80
2019-06-20T16:42:37.089Z,41.70
2019-06-20T16:45:08.392Z,41.70
2019-06-20T16:47:37.059Z,40.80
2019-06-20T16:50:07.924Z,40.00
2019-06-20T16:52:36.894Z,39.40
2019-06-20T16:55:09.119Z,39.90
2019-06-20T16:57:37.881Z,39.20
2019-06-20T17:00:08.741Z,39.20
2019-06-20T17:02:37.504Z,38.60
2019-06-20T17:05:07.175Z,38.50
2019-06-20T17:07:36.179Z,37.80
2019-06-20T17:10:08.653Z,36.80
2019-06-20T17:12:37.219Z,34.90
2019-06-20T17:15:06.666Z,32.90
2019-06-20T17:17:35.320Z,31.50
2019-06-20T17:20:06.440Z,31.00
2019-06-20T17:22:35.004Z,31.40
2019-06-20T17:25:05.479Z,32.50
2019-06-20T17:27:34.139Z,32.00
2019-06-20T17:30:02.869Z,31.30
2019-06-20T17:32:31.521Z,29.60
2019-06-20T17:35:00.171Z,28.70
2019-06-20T17:37:28.961Z,28.10
2019-06-20T17:39:57.502Z,27.50
2019-06-20T17:42:26.183Z,26.70
2019-06-20T17:44:54.837Z,26.40
2019-06-20T17:47:23.482Z,25.70
2019-06-20T17:49:52.071Z,25.10
2019-06-20T17:52:20.991Z,24.50
2019-06-20T17:54:49.578Z,24.10
2019-06-20T17:57:18.224Z,24.00
2019-06-20T17:59:46.796Z,24.00
2019-06-20T18:02:15.509Z,23.80
2019-06-20T18:04:44.115Z,23.70
2019-06-20T18:07:12.683Z,23.10
2019-06-20T18:09:41.323Z,22.70
2019-06-20T18:12:10.062Z,22.40
2019-06-20T18:14:38.627Z,22.40
2019-06-20T18:17:07.600Z,22.00
2019-06-20T18:19:36.165Z,21.60
2019-06-20T18:22:04.890Z,21.30
2019-06-20T18:24:33.541Z,20.90
2019-06-20T18:27:02.262Z,20.90
2019-06-20T18:29:30.903Z,20.60
2019-06-20T18:31:59.477Z,20.30
2019-06-20T18:34:30.351Z,20.20
2019-06-20T18:36:58.651Z,20.00
2019-06-20T18:39:27.231Z,19.70
2019-06-20T18:41:55.912Z,19.60
2019-06-20T18:44:24.968Z,19.50
2019-06-20T18:46:53.591Z,19.40
2019-06-20T18:49:22.648Z,19.20
2019-06-20T18:51:51.281Z,19.10
2019-06-20T18:54:19.957Z,19.00
2019-06-20T18:56:48.510Z,18.80
2019-06-20T18:59:17.124Z,18.80
2019-06-20T19:01:45.833Z,18.60
2019-06-20T19:04:14.791Z,18.50
2019-06-20T19:06:43.357Z,18.40
2019-06-20T19:09:12.126Z,18.30
2019-06-20T19:11:40.768Z,18.20
2019-06-20T19:14:12.551Z,18.10
2019-06-20T19:16:40.620Z,17.90
2019-06-20T19:19:09.196Z,17.80
2019-06-20T19:21:37.754Z,17.70
2019-06-20T19:24:06.522Z,17.60
2019-06-20T19:26:35.183Z,17.40
2019-06-20T19:29:03.827Z,17.30
2019-06-20T19:31:32.540Z,17.20
2019-06-20T19:34:01.587Z,17.10
2019-06-20T19:36:30.216Z,17.00
2019-06-20T19:38:58.838Z,16.90
2019-06-20T19:41:27.434Z,16.80
2019-06-20T19:43:56.442Z,16.70
2019-06-20T19:46:25.118Z,16.60
2019-06-20T19:48:53.755Z,16.50
2019-06-20T19:51:22.344Z,16.40
2019-06-20T19:53:51.316Z,16.40
2019-06-20T19:56:19.973Z,16.30
2019-06-20T19:58:49.005Z,16.20
2019-06-20T20:01:17.617Z,16.10
2019-06-20T20:03:46.191Z,16.00
2019-06-20T20:06:15.108Z,15.90
2019-06-20T20:08:44.179Z,15.80
2019-06-20T20:11:13.063Z,15.80
2019-06-20T20:13:41.649Z,15.70
2019-06-20T20:16:10.618Z,15.60
2019-06-20T20:18:39.187Z,15.50
2019-06-20T20:21:07.866Z,15.50
2019-06-20T20:23:36.504Z,15.40
2019-06-20T20:26:08.595Z,15.30
2019-06-20T20:28:35.490Z,15.20
2019-06-20T20:31:04.010Z,15.10
2019-06-20T20:33:32.671Z,15.10
2019-06-20T20:36:02.117Z,15.10
2019-06-20T20:38:31.042Z,15.00
2019-06-20T20:40:59.668Z,15.00
2019-06-20T20:43:28.260Z,14.90
2019-06-20T20:45:56.846Z,14.90
2019-06-20T20:48:25.429Z,14.80
2019-06-20T20:50:54.075Z,14.70
2019-06-20T20:53:22.934Z,14.60
2019-06-20T20:55:51.573Z,14.60
2019-06-20T20:58:20.271Z,14.50
2019-06-20T21:01:11.591Z,14.50
2019-06-20T21:03:40.261Z,14.40
2019-06-20T21:06:08.889Z,14.30
2019-06-20T21:08:37.463Z,14.30
2019-06-20T21:11:06.181Z,14.30
2019-06-20T21:13:34.828Z,14.20
2019-06-20T21:16:03.481Z,14.20
2019-06-20T21:18:32.052Z,14.20
2019-06-20T21:21:00.641Z,14.20
2019-06-20T21:23:29.201Z,14.10
2019-06-20T21:25:57.817Z,14.10
2019-06-20T21:28:26.457Z,14.10
2019-06-20T21:30:55.196Z,14.10
2019-06-20T21:33:23.753Z,14.00
2019-06-20T21:36:07.199Z,14.00
2019-06-20T21:38:22.918Z,14.00
2019-06-20T21:40:51.497Z,13.90
2019-06-20T21:43:20.108Z,13.90
2019-06-20T21:45:48.673Z,13.80
2019-06-20T21:48:17.356Z,13.80
2019-06-20T21:50:46.272Z,13.80
2019-06-20T21:53:15.250Z,13.70
2019-06-20T21:55:44.131Z,13.70
2019-06-20T21:58:12.741Z,13.70
2019-06-20T22:00:44.835Z,13.60
2019-06-20T22:03:13.652Z,13.60
2019-06-20T22:05:42.329Z,13.60
2019-06-20T22:08:11.041Z,13.50
2019-06-20T22:10:39.790Z,13.50
2019-06-20T22:13:08.433Z,13.50
2019-06-20T22:15:37.260Z,13.40
2019-06-20T22:18:05.964Z,13.40
2019-06-20T22:20:34.618Z,13.40
2019-06-20T22:23:03.272Z,13.30
2019-06-20T22:25:31.851Z,13.30
2019-06-20T22:28:00.569Z,13.30
2019-06-20T22:30:35.133Z,13.20
2019-06-20T22:33:03.703Z,13.20
2019-06-20T22:35:32.320Z,13.10
2019-06-20T22:38:00.927Z,13.10
2019-06-20T22:40:29.497Z,13.10
2019-06-20T22:42:58.151Z,13.10
2019-06-20T22:45:26.749Z,13.10
2019-06-20T22:47:55.418Z,13.10
2019-06-20T22:50:23.971Z,13.00
2019-06-20T22:52:52.596Z,13.00
2019-06-20T22:55:21.227Z,13.00
2019-06-20T22:57:49.824Z,13.00
2019-06-20T23:00:18.826Z,13.00
2019-06-20T23:02:47.408Z,12.90
2019-06-20T23:05:16.051Z,12.90
2019-06-20T23:07:44.694Z,12.90
2019-06-20T23:10:13.419Z,12.80
2019-06-20T23:12:41.986Z,12.80
2019-06-20T23:15:11.147Z,12.80
2019-06-20T23:17:40.025Z,12.80
2019-06-20T23:20:10.769Z,12.80
2019-06-20T23:22:39.443Z,12.70
2019-06-20T23:25:12.712Z,12.70
2019-06-20T23:27:41.437Z,12.70
2019-06-20T23:30:11.703Z,12.60
2019-06-20T23:32:40.498Z,12.60
2019-06-20T23:35:10.697Z,12.60
2019-06-20T23:37:39.433Z,12.60
2019-06-20T23:40:08.638Z,12.60
2019-06-20T23:42:37.592Z,12.50
2019-06-20T23:45:07.412Z,12.50
2019-06-20T23:47:36.058Z,12.50
2019-06-20T23:50:06.745Z,12.50
2019-06-20T23:52:40.001Z,12.40
2019-06-20T23:55:09.105Z,12.40
2019-06-20T23:57:37.665Z,12.40
